sensor_id;sensor_type;location;lat;lon;timestamp;P1;durP1;ratioP1;P2;durP2;ratioP2
9330;SDS011;4704;50.470;12.072;2022-08-05T00:02:13;4.60;;;4.30;;
9330;SDS011;4704;50.470;12.072;2022-08-05T00:04:40;4.55;;;4.20;;
9330;SDS011;4704;50.470;12.072;2022-08-05T00:07:10;4.53;;;4.13;;
9330;SDS011;4704;50.470;12.072;2022-08-05T00:09:38;4.90;;;4.10;;
9330;SDS011;4704;50.470;12.072;2022-08-05T00:12:06;4.47;;;4.07;;
9330;SDS011;4704;50.470;12.072;2022-08-05T00:14:33;4.32;;;4.00;;
9330;SDS011;4704;50.470;12.072;2022-08-05T00:17:00;3.78;;;3.47;;
9330;SDS011;4704;50.470;12.072;2022-08-05T00:19:28;4.50;;;4.00;;
9330;SDS011;4704;50.470;12.072;2022-08-05T00:21:55;3.95;;;3.65;;
9330;SDS011;4704;50.470;12.072;2022-08-05T00:24:22;3.92;;;3.63;;
9330;SDS011;4704;50.470;12.072;2022-08-05T00:26:51;4.15;;;3.85;;
9330;SDS011;4704;50.470;12.072;2022-08-05T00:29:19;4.80;;;4.03;;
9330;SDS011;4704;50.470;12.072;2022-08-05T00:31:46;5.68;;;3.92;;
9330;SDS011;4704;50.470;12.072;2022-08-05T00:34:14;4.07;;;3.78;;
9330;SDS011;4704;50.470;12.072;2022-08-05T00:36:41;4.32;;;4.00;;
9330;SDS011;4704;50.470;12.072;2022-08-05T00:39:08;4.35;;;4.05;;
9330;SDS011;4704;50.470;12.072;2022-08-05T00:41:36;3.70;;;3.50;;
9330;SDS011;4704;50.470;12.072;2022-08-05T00:44:05;4.00;;;3.70;;
9330;SDS011;4704;50.470;12.072;2022-08-05T00:46:32;4.20;;;3.90;;
9330;SDS011;4704;50.470;12.072;2022-08-05T00:49:00;4.00;;;3.70;;
9330;SDS011;4704;50.470;12.072;2022-08-05T00:51:27;3.63;;;3.42;;
9330;SDS011;4704;50.470;12.072;2022-08-05T00:53:54;4.20;;;3.80;;
9330;SDS011;4704;50.470;12.072;2022-08-05T00:56:22;3.70;;;3.40;;
9330;SDS011;4704;50.470;12.072;2022-08-05T00:58:49;3.90;;;3.60;;
9330;SDS011;4704;50.470;12.072;2022-08-05T01:01:18;4.03;;;3.72;;
9330;SDS011;4704;50.470;12.072;2022-08-05T01:03:45;4.07;;;3.88;;
9330;SDS011;4704;50.470;12.072;2022-08-05T01:06:13;4.00;;;3.70;;
9330;SDS011;4704;50.470;12.072;2022-08-05T01:08:40;4.13;;;3.83;;
9330;SDS011;4704;50.470;12.072;2022-08-05T01:11:10;3.97;;;3.60;;
9330;SDS011;4704;50.470;12.072;2022-08-05T01:13:40;3.88;;;3.67;;
9330;SDS011;4704;50.470;12.072;2022-08-05T01:16:09;3.92;;;3.70;;
9330;SDS011;4704;50.470;12.072;2022-08-05T01:18:41;4.30;;;4.00;;
9330;SDS011;4704;50.470;12.072;2022-08-05T01:21:10;4.05;;;3.67;;
9330;SDS011;4704;50.470;12.072;2022-08-05T01:23:51;4.07;;;3.60;;
9330;SDS011;4704;50.470;12.072;2022-08-05T01:26:28;3.63;;;3.42;;
9330;SDS011;4704;50.470;12.072;2022-08-05T01:29:02;4.47;;;3.40;;
9330;SDS011;4704;50.470;12.072;2022-08-05T01:31:32;4.10;;;3.80;;
9330;SDS011;4704;50.470;12.072;2022-08-05T01:34:01;3.60;;;3.40;;
9330;SDS011;4704;50.470;12.072;2022-08-05T01:36:31;3.88;;;3.63;;
9330;SDS011;4704;50.470;12.072;2022-08-05T01:39:00;4.00;;;3.72;;
9330;SDS011;4704;50.470;12.072;2022-08-05T01:41:28;3.50;;;3.28;;
9330;SDS011;4704;50.470;12.072;2022-08-05T01:43:57;3.88;;;3.67;;
9330;SDS011;4704;50.470;12.072;2022-08-05T01:46:26;3.83;;;3.50;;
9330;SDS011;4704;50.470;12.072;2022-08-05T01:48:54;4.10;;;3.80;;
9330;SDS011;4704;50.470;12.072;2022-08-05T01:51:22;4.10;;;3.90;;
9330;SDS011;4704;50.470;12.072;2022-08-05T01:53:50;4.00;;;3.60;;
9330;SDS011;4704;50.470;12.072;2022-08-05T01:56:19;3.75;;;3.55;;
9330;SDS011;4704;50.470;12.072;2022-08-05T01:58:47;4.10;;;3.70;;
9330;SDS011;4704;50.470;12.072;2022-08-05T02:01:15;4.30;;;4.00;;
9330;SDS011;4704;50.470;12.072;2022-08-05T02:03:45;4.13;;;3.80;;
9330;SDS011;4704;50.470;12.072;2022-08-05T02:06:13;4.43;;;3.50;;
9330;SDS011;4704;50.470;12.072;2022-08-05T02:08:41;3.58;;;3.38;;
9330;SDS011;4704;50.470;12.072;2022-08-05T02:11:09;4.10;;;3.80;;
9330;SDS011;4704;50.470;12.072;2022-08-05T02:13:37;3.72;;;3.47;;
9330;SDS011;4704;50.470;12.072;2022-08-05T02:16:07;4.13;;;3.83;;
9330;SDS011;4704;50.470;12.072;2022-08-05T02:18:37;3.65;;;3.45;;
9330;SDS011;4704;50.470;12.072;2022-08-05T02:21:08;4.07;;;3.78;;
9330;SDS011;4704;50.470;12.072;2022-08-05T02:23:38;4.05;;;3.75;;
9330;SDS011;4704;50.470;12.072;2022-08-05T02:26:06;4.28;;;3.92;;
9330;SDS011;4704;50.470;12.072;2022-08-05T02:28:35;4.22;;;3.83;;
9330;SDS011;4704;50.470;12.072;2022-08-05T02:31:05;4.30;;;3.90;;
9330;SDS011;4704;50.470;12.072;2022-08-05T02:33:34;4.10;;;3.70;;
9330;SDS011;4704;50.470;12.072;2022-08-05T02:36:03;3.80;;;3.50;;
9330;SDS011;4704;50.470;12.072;2022-08-05T02:38:32;3.90;;;3.50;;
9330;SDS011;4704;50.470;12.072;2022-08-05T02:41:00;4.47;;;3.67;;
9330;SDS011;4704;50.470;12.072;2022-08-05T02:43:29;3.88;;;3.58;;
9330;SDS011;4704;50.470;12.072;2022-08-05T02:45:57;4.20;;;3.90;;
9330;SDS011;4704;50.470;12.072;2022-08-05T02:48:25;4.05;;;3.65;;
9330;SDS011;4704;50.470;12.072;2022-08-05T02:50:53;3.67;;;3.47;;
9330;SDS011;4704;50.470;12.072;2022-08-05T02:53:20;3.97;;;3.75;;
9330;SDS011;4704;50.470;12.072;2022-08-05T02:55:49;4.20;;;3.90;;
9330;SDS011;4704;50.470;12.072;2022-08-05T02:58:18;4.18;;;3.88;;
9330;SDS011;4704;50.470;12.072;2022-08-05T03:00:47;3.95;;;3.65;;
9330;SDS011;4704;50.470;12.072;2022-08-05T03:03:15;3.75;;;3.55;;
9330;SDS011;4704;50.470;12.072;2022-08-05T03:05:43;3.72;;;3.53;;
9330;SDS011;4704;50.470;12.072;2022-08-05T03:08:10;4.38;;;4.07;;
9330;SDS011;4704;50.470;12.072;2022-08-05T03:10:40;3.95;;;3.65;;
9330;SDS011;4704;50.470;12.072;2022-08-05T03:13:12;4.10;;;3.80;;
9330;SDS011;4704;50.470;12.072;2022-08-05T03:15:40;4.38;;;4.07;;
9330;SDS011;4704;50.470;12.072;2022-08-05T03:18:08;4.55;;;4.25;;
9330;SDS011;4704;50.470;12.072;2022-08-05T03:20:36;4.03;;;3.72;;
9330;SDS011;4704;50.470;12.072;2022-08-05T03:23:03;4.68;;;4.22;;
9330;SDS011;4704;50.470;12.072;2022-08-05T03:25:31;4.10;;;3.80;;
9330;SDS011;4704;50.470;12.072;2022-08-05T03:27:59;3.95;;;3.58;;
9330;SDS011;4704;50.470;12.072;2022-08-05T03:30:28;3.90;;;3.60;;
9330;SDS011;4704;50.470;12.072;2022-08-05T03:32:57;3.70;;;3.47;;
9330;SDS011;4704;50.470;12.072;2022-08-05T03:35:25;3.50;;;3.30;;
9330;SDS011;4704;50.470;12.072;2022-08-05T03:37:54;4.47;;;4.10;;
9330;SDS011;4704;50.470;12.072;2022-08-05T03:40:22;4.10;;;3.80;;
9330;SDS011;4704;50.470;12.072;2022-08-05T03:42:50;4.15;;;3.80;;
9330;SDS011;4704;50.470;12.072;2022-08-05T03:45:17;3.60;;;3.40;;
9330;SDS011;4704;50.470;12.072;2022-08-05T03:47:46;4.32;;;4.00;;
9330;SDS011;4704;50.470;12.072;2022-08-05T03:50:14;3.55;;;3.35;;
9330;SDS011;4704;50.470;12.072;2022-08-05T03:52:43;3.80;;;3.60;;
9330;SDS011;4704;50.470;12.072;2022-08-05T03:55:16;4.18;;;3.88;;
9330;SDS011;4704;50.470;12.072;2022-08-05T03:57:44;4.13;;;3.85;;
9330;SDS011;4704;50.470;12.072;2022-08-05T04:00:14;3.90;;;3.70;;
9330;SDS011;4704;50.470;12.072;2022-08-05T04:02:42;4.05;;;3.75;;
9330;SDS011;4704;50.470;12.072;2022-08-05T04:05:12;3.80;;;3.60;;
9330;SDS011;4704;50.470;12.072;2022-08-05T04:07:40;3.70;;;3.50;;
9330;SDS011;4704;50.470;12.072;2022-08-05T04:10:08;3.83;;;3.53;;
9330;SDS011;4704;50.470;12.072;2022-08-05T04:12:36;4.68;;;3.90;;
9330;SDS011;4704;50.470;12.072;2022-08-05T04:15:04;4.15;;;3.85;;
9330;SDS011;4704;50.470;12.072;2022-08-05T04:17:32;4.70;;;3.78;;
9330;SDS011;4704;50.470;12.072;2022-08-05T04:20:00;57.58;;;5.65;;
9330;SDS011;4704;50.470;12.072;2022-08-05T04:22:28;4.63;;;4.10;;
9330;SDS011;4704;50.470;12.072;2022-08-05T04:24:55;4.05;;;3.72;;
9330;SDS011;4704;50.470;12.072;2022-08-05T04:27:23;3.90;;;3.70;;
9330;SDS011;4704;50.470;12.072;2022-08-05T04:29:50;3.38;;;3.17;;
9330;SDS011;4704;50.470;12.072;2022-08-05T04:32:17;3.70;;;3.50;;
9330;SDS011;4704;50.470;12.072;2022-08-05T04:34:45;4.18;;;3.88;;
9330;SDS011;4704;50.470;12.072;2022-08-05T04:37:12;4.10;;;3.80;;
9330;SDS011;4704;50.470;12.072;2022-08-05T04:39:40;4.20;;;3.90;;
9330;SDS011;4704;50.470;12.072;2022-08-05T04:42:09;3.90;;;3.60;;
9330;SDS011;4704;50.470;12.072;2022-08-05T04:44:36;4.25;;;3.75;;
9330;SDS011;4704;50.470;12.072;2022-08-05T04:47:04;4.43;;;4.03;;
9330;SDS011;4704;50.470;12.072;2022-08-05T04:49:31;4.10;;;3.90;;
9330;SDS011;4704;50.470;12.072;2022-08-05T04:51:58;4.32;;;3.97;;
9330;SDS011;4704;50.470;12.072;2022-08-05T04:54:26;4.00;;;3.80;;
9330;SDS011;4704;50.470;12.072;2022-08-05T04:56:55;4.20;;;3.80;;
9330;SDS011;4704;50.470;12.072;2022-08-05T04:59:22;4.22;;;3.90;;
9330;SDS011;4704;50.470;12.072;2022-08-05T05:01:49;5.00;;;3.88;;
9330;SDS011;4704;50.470;12.072;2022-08-05T05:04:17;3.97;;;3.70;;
9330;SDS011;4704;50.470;12.072;2022-08-05T05:06:44;4.30;;;3.90;;
9330;SDS011;4704;50.470;12.072;2022-08-05T05:09:11;4.10;;;3.80;;
9330;SDS011;4704;50.470;12.072;2022-08-05T05:11:39;4.20;;;3.90;;
9330;SDS011;4704;50.470;12.072;2022-08-05T05:14:07;4.00;;;3.80;;
9330;SDS011;4704;50.470;12.072;2022-08-05T05:16:35;3.85;;;3.65;;
9330;SDS011;4704;50.470;12.072;2022-08-05T05:19:02;4.15;;;3.85;;
9330;SDS011;4704;50.470;12.072;2022-08-05T05:21:29;4.43;;;4.18;;
9330;SDS011;4704;50.470;12.072;2022-08-05T05:23:57;4.88;;;4.05;;
9330;SDS011;4704;50.470;12.072;2022-08-05T05:26:24;4.43;;;4.13;;
9330;SDS011;4704;50.470;12.072;2022-08-05T05:28:51;4.47;;;4.13;;
9330;SDS011;4704;50.470;12.072;2022-08-05T05:31:20;4.75;;;4.40;;
9330;SDS011;4704;50.470;12.072;2022-08-05T05:33:47;5.38;;;4.90;;
9330;SDS011;4704;50.470;12.072;2022-08-05T05:36:15;5.05;;;4.65;;
9330;SDS011;4704;50.470;12.072;2022-08-05T05:38:42;4.97;;;4.57;;
9330;SDS011;4704;50.470;12.072;2022-08-05T05:41:09;5.00;;;4.70;;
9330;SDS011;4704;50.470;12.072;2022-08-05T05:43:37;4.88;;;4.53;;
9330;SDS011;4704;50.470;12.072;2022-08-05T05:46:04;4.97;;;4.65;;
9330;SDS011;4704;50.470;12.072;2022-08-05T05:48:33;5.10;;;4.70;;
9330;SDS011;4704;50.470;12.072;2022-08-05T05:51:01;5.38;;;4.43;;
9330;SDS011;4704;50.470;12.072;2022-08-05T05:53:28;4.97;;;4.68;;
9330;SDS011;4704;50.470;12.072;2022-08-05T05:55:55;4.57;;;4.28;;
9330;SDS011;4704;50.470;12.072;2022-08-05T05:58:22;4.22;;;3.92;;
9330;SDS011;4704;50.470;12.072;2022-08-05T06:00:50;5.03;;;4.30;;
9330;SDS011;4704;50.470;12.072;2022-08-05T06:03:17;4.60;;;4.20;;
9330;SDS011;4704;50.470;12.072;2022-08-05T06:05:46;4.72;;;4.32;;
9330;SDS011;4704;50.470;12.072;2022-08-05T06:08:14;4.40;;;4.07;;
9330;SDS011;4704;50.470;12.072;2022-08-05T06:10:41;4.50;;;3.95;;
9330;SDS011;4704;50.470;12.072;2022-08-05T06:13:09;4.35;;;4.05;;
9330;SDS011;4704;50.470;12.072;2022-08-05T06:15:36;4.25;;;3.95;;
9330;SDS011;4704;50.470;12.072;2022-08-05T06:18:04;4.95;;;4.40;;
9330;SDS011;4704;50.470;12.072;2022-08-05T06:20:32;4.10;;;3.80;;
9330;SDS011;4704;50.470;12.072;2022-08-05T06:23:01;4.03;;;3.58;;
9330;SDS011;4704;50.470;12.072;2022-08-05T06:25:28;4.30;;;3.88;;
9330;SDS011;4704;50.470;12.072;2022-08-05T06:27:56;5.05;;;3.80;;
9330;SDS011;4704;50.470;12.072;2022-08-05T06:30:23;4.45;;;4.05;;
9330;SDS011;4704;50.470;12.072;2022-08-05T06:32:51;4.53;;;4.13;;
9330;SDS011;4704;50.470;12.072;2022-08-05T06:35:18;4.60;;;3.75;;
9330;SDS011;4704;50.470;12.072;2022-08-05T06:37:46;4.78;;;3.80;;
9330;SDS011;4704;50.470;12.072;2022-08-05T06:40:15;3.90;;;3.60;;
9330;SDS011;4704;50.470;12.072;2022-08-05T06:42:42;4.63;;;3.47;;
9330;SDS011;4704;50.470;12.072;2022-08-05T06:45:09;4.95;;;3.85;;
9330;SDS011;4704;50.470;12.072;2022-08-05T06:47:36;3.97;;;3.60;;
9330;SDS011;4704;50.470;12.072;2022-08-05T06:50:04;3.78;;;3.42;;
9330;SDS011;4704;50.470;12.072;2022-08-05T06:52:31;3.92;;;3.53;;
9330;SDS011;4704;50.470;12.072;2022-08-05T06:54:59;4.22;;;3.63;;
9330;SDS011;4704;50.470;12.072;2022-08-05T06:57:27;3.63;;;3.42;;
9330;SDS011;4704;50.470;12.072;2022-08-05T06:59:55;3.80;;;3.50;;
9330;SDS011;4704;50.470;12.072;2022-08-05T07:02:22;3.83;;;3.58;;
9330;SDS011;4704;50.470;12.072;2022-08-05T07:04:49;3.80;;;3.50;;
9330;SDS011;4704;50.470;12.072;2022-08-05T07:07:17;4.00;;;3.70;;
9330;SDS011;4704;50.470;12.072;2022-08-05T07:09:44;4.10;;;3.70;;
9330;SDS011;4704;50.470;12.072;2022-08-05T07:12:11;5.70;;;3.88;;
9330;SDS011;4704;50.470;12.072;2022-08-05T07:15:00;4.30;;;3.90;;
9330;SDS011;4704;50.470;12.072;2022-08-05T07:17:45;4.97;;;4.10;;
9330;SDS011;4704;50.470;12.072;2022-08-05T07:20:12;5.25;;;3.70;;
9330;SDS011;4704;50.470;12.072;2022-08-05T07:22:39;3.92;;;3.63;;
9330;SDS011;4704;50.470;12.072;2022-08-05T07:25:07;4.97;;;3.70;;
9330;SDS011;4704;50.470;12.072;2022-08-05T07:27:34;4.93;;;3.72;;
9330;SDS011;4704;50.470;12.072;2022-08-05T07:30:03;4.55;;;3.90;;
9330;SDS011;4704;50.470;12.072;2022-08-05T07:32:33;5.93;;;4.07;;
9330;SDS011;4704;50.470;12.072;2022-08-05T07:35:01;4.95;;;3.80;;
9330;SDS011;4704;50.470;12.072;2022-08-05T07:37:28;6.68;;;4.28;;
9330;SDS011;4704;50.470;12.072;2022-08-05T07:39:56;3.67;;;3.38;;
9330;SDS011;4704;50.470;12.072;2022-08-05T07:42:23;4.18;;;3.88;;
9330;SDS011;4704;50.470;12.072;2022-08-05T07:44:50;4.63;;;3.70;;
9330;SDS011;4704;50.470;12.072;2022-08-05T07:47:19;3.63;;;3.33;;
9330;SDS011;4704;50.470;12.072;2022-08-05T07:49:46;4.18;;;3.88;;
9330;SDS011;4704;50.470;12.072;2022-08-05T07:52:16;4.03;;;3.40;;
9330;SDS011;4704;50.470;12.072;2022-08-05T07:54:43;4.10;;;3.65;;
9330;SDS011;4704;50.470;12.072;2022-08-05T07:57:10;3.97;;;3.67;;
9330;SDS011;4704;50.470;12.072;2022-08-05T07:59:38;3.95;;;3.65;;
9330;SDS011;4704;50.470;12.072;2022-08-05T08:02:05;3.72;;;3.35;;
9330;SDS011;4704;50.470;12.072;2022-08-05T08:04:34;3.70;;;3.40;;
9330;SDS011;4704;50.470;12.072;2022-08-05T08:07:02;3.70;;;3.40;;
9330;SDS011;4704;50.470;12.072;2022-08-05T08:09:29;4.07;;;3.60;;
9330;SDS011;4704;50.470;12.072;2022-08-05T08:11:56;3.47;;;3.17;;
9330;SDS011;4704;50.470;12.072;2022-08-05T08:14:23;3.47;;;3.20;;
9330;SDS011;4704;50.470;12.072;2022-08-05T08:16:51;3.55;;;3.25;;
9330;SDS011;4704;50.470;12.072;2022-08-05T08:19:18;3.58;;;3.28;;
9330;SDS011;4704;50.470;12.072;2022-08-05T08:21:47;3.55;;;3.35;;
9330;SDS011;4704;50.470;12.072;2022-08-05T08:24:14;3.50;;;2.97;;
9330;SDS011;4704;50.470;12.072;2022-08-05T08:26:42;3.05;;;2.83;;
9330;SDS011;4704;50.470;12.072;2022-08-05T08:29:09;3.38;;;3.00;;
9330;SDS011;4704;50.470;12.072;2022-08-05T08:31:37;3.42;;;3.13;;
9330;SDS011;4704;50.470;12.072;2022-08-05T08:34:05;3.75;;;3.35;;
9330;SDS011;4704;50.470;12.072;2022-08-05T08:36:32;3.88;;;3.30;;
9330;SDS011;4704;50.470;12.072;2022-08-05T08:39:00;3.60;;;3.30;;
9330;SDS011;4704;50.470;12.072;2022-08-05T08:41:28;3.30;;;3.00;;
9330;SDS011;4704;50.470;12.072;2022-08-05T08:43:56;3.72;;;3.42;;
9330;SDS011;4704;50.470;12.072;2022-08-05T08:46:25;3.58;;;3.28;;
9330;SDS011;4704;50.470;12.072;2022-08-05T08:48:53;3.25;;;3.05;;
9330;SDS011;4704;50.470;12.072;2022-08-05T08:51:20;3.08;;;2.88;;
9330;SDS011;4704;50.470;12.072;2022-08-05T08:53:48;3.50;;;2.95;;
9330;SDS011;4704;50.470;12.072;2022-08-05T08:56:17;3.20;;;2.97;;
9330;SDS011;4704;50.470;12.072;2022-08-05T08:58:45;3.25;;;2.97;;
9330;SDS011;4704;50.470;12.072;2022-08-05T09:01:13;3.30;;;3.10;;
9330;SDS011;4704;50.470;12.072;2022-08-05T09:03:40;3.45;;;3.15;;
9330;SDS011;4704;50.470;12.072;2022-08-05T09:06:08;3.60;;;3.30;;
9330;SDS011;4704;50.470;12.072;2022-08-05T09:08:35;3.65;;;3.45;;
9330;SDS011;4704;50.470;12.072;2022-08-05T09:11:02;3.60;;;3.30;;
9330;SDS011;4704;50.470;12.072;2022-08-05T09:13:31;3.45;;;3.25;;
9330;SDS011;4704;50.470;12.072;2022-08-05T09:16:00;3.08;;;2.88;;
9330;SDS011;4704;50.470;12.072;2022-08-05T09:18:27;3.40;;;3.10;;
9330;SDS011;4704;50.470;12.072;2022-08-05T09:20:54;3.20;;;3.00;;
9330;SDS011;4704;50.470;12.072;2022-08-05T09:23:22;3.17;;;2.97;;
9330;SDS011;4704;50.470;12.072;2022-08-05T09:25:49;3.17;;;2.97;;
9330;SDS011;4704;50.470;12.072;2022-08-05T09:28:19;2.95;;;2.75;;
9330;SDS011;4704;50.470;12.072;2022-08-05T09:30:52;3.22;;;2.97;;
9330;SDS011;4704;50.470;12.072;2022-08-05T09:33:20;3.40;;;3.10;;
9330;SDS011;4704;50.470;12.072;2022-08-05T09:35:52;3.08;;;2.88;;
9330;SDS011;4704;50.470;12.072;2022-08-05T09:38:19;3.28;;;3.08;;
9330;SDS011;4704;50.470;12.072;2022-08-05T09:40:46;3.00;;;2.80;;
9330;SDS011;4704;50.470;12.072;2022-08-05T09:45:57;3.28;;;3.08;;
9330;SDS011;4704;50.470;12.072;2022-08-05T09:48:25;3.10;;;2.90;;
9330;SDS011;4704;50.470;12.072;2022-08-05T09:50:55;3.28;;;3.00;;
9330;SDS011;4704;50.470;12.072;2022-08-05T09:53:24;3.33;;;3.10;;
9330;SDS011;4704;50.470;12.072;2022-08-05T09:55:53;3.10;;;2.90;;
9330;SDS011;4704;50.470;12.072;2022-08-05T09:58:21;3.13;;;2.63;;
9330;SDS011;4704;50.470;12.072;2022-08-05T10:00:55;3.13;;;2.92;;
9330;SDS011;4704;50.470;12.072;2022-08-05T10:03:24;3.28;;;3.03;;
9330;SDS011;4704;50.470;12.072;2022-08-05T10:06:05;3.20;;;3.00;;
9330;SDS011;4704;50.470;12.072;2022-08-05T10:08:33;2.95;;;2.75;;
9330;SDS011;4704;50.470;12.072;2022-08-05T10:11:01;3.05;;;2.85;;
9330;SDS011;4704;50.470;12.072;2022-08-05T10:13:31;3.30;;;3.05;;
9330;SDS011;4704;50.470;12.072;2022-08-05T10:16:00;3.22;;;2.90;;
9330;SDS011;4704;50.470;12.072;2022-08-05T10:18:29;3.15;;;2.95;;
9330;SDS011;4704;50.470;12.072;2022-08-05T10:20:58;2.83;;;2.63;;
9330;SDS011;4704;50.470;12.072;2022-08-05T10:23:26;2.88;;;2.67;;
9330;SDS011;4704;50.470;12.072;2022-08-05T10:25:53;2.88;;;2.65;;
9330;SDS011;4704;50.470;12.072;2022-08-05T10:28:21;2.80;;;2.60;;
9330;SDS011;4704;50.470;12.072;2022-08-05T10:30:49;3.75;;;2.85;;
9330;SDS011;4704;50.470;12.072;2022-08-05T10:33:17;3.03;;;2.83;;
9330;SDS011;4704;50.470;12.072;2022-08-05T10:35:46;3.13;;;2.92;;
9330;SDS011;4704;50.470;12.072;2022-08-05T10:38:14;3.10;;;2.72;;
9330;SDS011;4704;50.470;12.072;2022-08-05T10:40:45;3.17;;;2.83;;
9330;SDS011;4704;50.470;12.072;2022-08-05T10:43:16;3.08;;;2.78;;
9330;SDS011;4704;50.470;12.072;2022-08-05T10:45:54;3.55;;;2.80;;
9330;SDS011;4704;50.470;12.072;2022-08-05T10:48:28;2.95;;;2.70;;
9330;SDS011;4704;50.470;12.072;2022-08-05T10:50:59;2.92;;;2.72;;
9330;SDS011;4704;50.470;12.072;2022-08-05T10:53:32;3.10;;;2.90;;
9330;SDS011;4704;50.470;12.072;2022-08-05T10:56:00;3.25;;;2.95;;
9330;SDS011;4704;50.470;12.072;2022-08-05T10:58:28;3.30;;;3.00;;
9330;SDS011;4704;50.470;12.072;2022-08-05T11:00:55;3.28;;;3.00;;
9330;SDS011;4704;50.470;12.072;2022-08-05T11:03:22;3.05;;;2.85;;
9330;SDS011;4704;50.470;12.072;2022-08-05T11:06:09;3.83;;;3.45;;
9330;SDS011;4704;50.470;12.072;2022-08-05T11:08:36;2.83;;;2.63;;
9330;SDS011;4704;50.470;12.072;2022-08-05T11:13:49;3.20;;;3.00;;
9330;SDS011;4704;50.470;12.072;2022-08-05T11:16:20;2.90;;;2.70;;
9330;SDS011;4704;50.470;12.072;2022-08-05T11:18:55;3.20;;;2.90;;
9330;SDS011;4704;50.470;12.072;2022-08-05T11:21:44;3.00;;;2.70;;
9330;SDS011;4704;50.470;12.072;2022-08-05T11:24:11;3.13;;;2.70;;
9330;SDS011;4704;50.470;12.072;2022-08-05T11:26:39;3.50;;;3.20;;
9330;SDS011;4704;50.470;12.072;2022-08-05T11:29:06;3.60;;;3.30;;
9330;SDS011;4704;50.470;12.072;2022-08-05T11:31:34;3.58;;;2.97;;
9330;SDS011;4704;50.470;12.072;2022-08-05T11:34:03;3.42;;;3.03;;
9330;SDS011;4704;50.470;12.072;2022-08-05T11:36:40;5.05;;;3.10;;
9330;SDS011;4704;50.470;12.072;2022-08-05T11:39:12;7.10;;;3.42;;
9330;SDS011;4704;50.470;12.072;2022-08-05T11:41:40;3.53;;;3.20;;
9330;SDS011;4704;50.470;12.072;2022-08-05T11:44:07;3.10;;;2.90;;
9330;SDS011;4704;50.470;12.072;2022-08-05T11:46:38;3.15;;;2.92;;
9330;SDS011;4704;50.470;12.072;2022-08-05T11:49:06;3.30;;;3.00;;
9330;SDS011;4704;50.470;12.072;2022-08-05T11:51:34;2.90;;;2.70;;
9330;SDS011;4704;50.470;12.072;2022-08-05T11:54:01;2.80;;;2.60;;
9330;SDS011;4704;50.470;12.072;2022-08-05T11:56:43;3.53;;;2.53;;
9330;SDS011;4704;50.470;12.072;2022-08-05T11:59:14;2.50;;;2.40;;
9330;SDS011;4704;50.470;12.072;2022-08-05T12:01:51;2.47;;;2.30;;
9330;SDS011;4704;50.470;12.072;2022-08-05T12:04:19;2.60;;;2.40;;
9330;SDS011;4704;50.470;12.072;2022-08-05T12:06:46;2.55;;;2.35;;
9330;SDS011;4704;50.470;12.072;2022-08-05T12:09:15;2.47;;;2.10;;
9330;SDS011;4704;50.470;12.072;2022-08-05T12:11:45;2.30;;;2.10;;
9330;SDS011;4704;50.470;12.072;2022-08-05T12:14:13;2.83;;;2.13;;
9330;SDS011;4704;50.470;12.072;2022-08-05T12:16:40;2.60;;;2.40;;
9330;SDS011;4704;50.470;12.072;2022-08-05T12:19:09;2.22;;;2.13;;
9330;SDS011;4704;50.470;12.072;2022-08-05T12:21:41;2.63;;;1.95;;
9330;SDS011;4704;50.470;12.072;2022-08-05T12:24:09;1.95;;;1.85;;
9330;SDS011;4704;50.470;12.072;2022-08-05T12:26:39;2.15;;;2.05;;
9330;SDS011;4704;50.470;12.072;2022-08-05T12:29:09;2.40;;;2.20;;
9330;SDS011;4704;50.470;12.072;2022-08-05T12:31:36;2.25;;;2.00;;
9330;SDS011;4704;50.470;12.072;2022-08-05T12:34:05;2.63;;;2.22;;
9330;SDS011;4704;50.470;12.072;2022-08-05T12:36:32;1.90;;;1.80;;
9330;SDS011;4704;50.470;12.072;2022-08-05T12:39:00;2.22;;;2.03;;
9330;SDS011;4704;50.470;12.072;2022-08-05T12:41:29;1.95;;;1.85;;
9330;SDS011;4704;50.470;12.072;2022-08-05T12:43:57;2.40;;;2.00;;
9330;SDS011;4704;50.470;12.072;2022-08-05T12:46:27;2.72;;;1.90;;
9330;SDS011;4704;50.470;12.072;2022-08-05T12:48:55;2.78;;;2.33;;
9330;SDS011;4704;50.470;12.072;2022-08-05T12:51:23;2.60;;;2.20;;
9330;SDS011;4704;50.470;12.072;2022-08-05T12:53:57;2.38;;;1.83;;
9330;SDS011;4704;50.470;12.072;2022-08-05T12:56:26;2.10;;;2.00;;
9330;SDS011;4704;50.470;12.072;2022-08-05T12:59:12;2.38;;;1.92;;
9330;SDS011;4704;50.470;12.072;2022-08-05T13:01:42;2.30;;;2.10;;
9330;SDS011;4704;50.470;12.072;2022-08-05T13:04:09;1.92;;;1.80;;
9330;SDS011;4704;50.470;12.072;2022-08-05T13:06:38;2.08;;;1.98;;
9330;SDS011;4704;50.470;12.072;2022-08-05T13:09:06;1.98;;;1.88;;
9330;SDS011;4704;50.470;12.072;2022-08-05T13:11:36;1.92;;;1.83;;
9330;SDS011;4704;50.470;12.072;2022-08-05T13:14:08;2.03;;;1.92;;
9330;SDS011;4704;50.470;12.072;2022-08-05T13:16:44;2.40;;;2.20;;
9330;SDS011;4704;50.470;12.072;2022-08-05T13:19:12;2.30;;;2.05;;
9330;SDS011;4704;50.470;12.072;2022-08-05T13:21:40;1.90;;;1.80;;
9330;SDS011;4704;50.470;12.072;2022-08-05T13:24:07;2.03;;;1.92;;
9330;SDS011;4704;50.470;12.072;2022-08-05T13:26:34;1.90;;;1.80;;
9330;SDS011;4704;50.470;12.072;2022-08-05T13:29:02;1.95;;;1.83;;
9330;SDS011;4704;50.470;12.072;2022-08-05T13:31:29;2.00;;;1.90;;
9330;SDS011;4704;50.470;12.072;2022-08-05T13:33:58;2.08;;;1.98;;
9330;SDS011;4704;50.470;12.072;2022-08-05T13:36:25;1.90;;;1.80;;
9330;SDS011;4704;50.470;12.072;2022-08-05T13:38:53;2.40;;;2.05;;
9330;SDS011;4704;50.470;12.072;2022-08-05T13:41:20;2.05;;;1.90;;
9330;SDS011;4704;50.470;12.072;2022-08-05T13:43:47;2.00;;;1.90;;
9330;SDS011;4704;50.470;12.072;2022-08-05T13:46:14;2.13;;;1.92;;
9330;SDS011;4704;50.470;12.072;2022-08-05T13:48:42;2.10;;;2.00;;
9330;SDS011;4704;50.470;12.072;2022-08-05T13:51:11;1.90;;;1.80;;
9330;SDS011;4704;50.470;12.072;2022-08-05T13:53:39;2.00;;;1.80;;
9330;SDS011;4704;50.470;12.072;2022-08-05T13:56:07;2.00;;;1.90;;
9330;SDS011;4704;50.470;12.072;2022-08-05T13:58:34;1.70;;;1.60;;
9330;SDS011;4704;50.470;12.072;2022-08-05T14:01:01;2.00;;;1.90;;
9330;SDS011;4704;50.470;12.072;2022-08-05T14:03:29;2.58;;;2.15;;
9330;SDS011;4704;50.470;12.072;2022-08-05T14:05:56;2.10;;;2.00;;
9330;SDS011;4704;50.470;12.072;2022-08-05T14:08:25;1.92;;;1.83;;
9330;SDS011;4704;50.470;12.072;2022-08-05T14:10:52;2.15;;;2.03;;
9330;SDS011;4704;50.470;12.072;2022-08-05T14:13:19;2.13;;;1.95;;
9330;SDS011;4704;50.470;12.072;2022-08-05T14:15:47;1.90;;;1.80;;
9330;SDS011;4704;50.470;12.072;2022-08-05T14:18:14;2.05;;;1.95;;
9330;SDS011;4704;50.470;12.072;2022-08-05T14:20:41;2.10;;;1.90;;
9330;SDS011;4704;50.470;12.072;2022-08-05T14:23:09;2.30;;;2.10;;
9330;SDS011;4704;50.470;12.072;2022-08-05T14:25:37;1.95;;;1.85;;
9330;SDS011;4704;50.470;12.072;2022-08-05T14:28:05;2.20;;;2.00;;
9330;SDS011;4704;50.470;12.072;2022-08-05T14:30:32;2.03;;;1.90;;
9330;SDS011;4704;50.470;12.072;2022-08-05T14:33:00;1.77;;;1.67;;
9330;SDS011;4704;50.470;12.072;2022-08-05T14:35:28;2.00;;;1.90;;
9330;SDS011;4704;50.470;12.072;2022-08-05T14:37:56;2.00;;;1.90;;
9330;SDS011;4704;50.470;12.072;2022-08-05T14:40:23;2.30;;;2.15;;
9330;SDS011;4704;50.470;12.072;2022-08-05T14:42:52;1.90;;;1.80;;
9330;SDS011;4704;50.470;12.072;2022-08-05T14:45:20;2.20;;;2.10;;
9330;SDS011;4704;50.470;12.072;2022-08-05T14:47:47;2.05;;;1.90;;
9330;SDS011;4704;50.470;12.072;2022-08-05T14:50:14;2.20;;;2.10;;
9330;SDS011;4704;50.470;12.072;2022-08-05T14:52:41;1.83;;;1.73;;
9330;SDS011;4704;50.470;12.072;2022-08-05T14:55:09;1.75;;;1.65;;
9330;SDS011;4704;50.470;12.072;2022-08-05T14:57:36;2.00;;;1.90;;
9330;SDS011;4704;50.470;12.072;2022-08-05T15:00:06;2.30;;;2.20;;
9330;SDS011;4704;50.470;12.072;2022-08-05T15:02:33;1.80;;;1.70;;
9330;SDS011;4704;50.470;12.072;2022-08-05T15:05:01;1.85;;;1.70;;
9330;SDS011;4704;50.470;12.072;2022-08-05T15:07:28;1.90;;;1.80;;
9330;SDS011;4704;50.470;12.072;2022-08-05T15:09:55;2.00;;;1.90;;
9330;SDS011;4704;50.470;12.072;2022-08-05T15:12:23;1.92;;;1.83;;
9330;SDS011;4704;50.470;12.072;2022-08-05T15:14:50;2.10;;;1.90;;